• Join FlightAware (Why Join?)
  • Login
  • US Flag 
12:44AM EDT


 

Airport Tracker/Info


-or-


 

Live Flight TrackerFlight Track Log ✈ N173AA ✈ 17-Apr-2013 ✈ KPGV - KBKL

Flight Track Log - Related Links

Times and Time Zones

All times are in EDT time to prevent confusion due to time zone crossing. See the N173AA flight status page for this flight to view local times or setup timezone preferences in your user account.

Time Position Orientation Groundspeed Altitude Reporting Facility
EDT Latitude Longitude Course Direction KTS MPH feet Rate Location/Type
08:06PM 35.7433 -78.4019 99° East 268 308 7,500  Level Washington Center
08:07PM 35.7308 -78.3069 99° East 274 315 7,500 -60 Level Washington Center
08:08PM 35.7206 -78.2117 98° East 279 321 7,400  Descending Washington Center
08:09PM 35.7100 -78.1169 98° East 274 315 7,500  Climbing Washington Center
08:10PM 35.6975 -78.0244 99° East 274 315 7,400  Descending Washington Center
08:11PM 35.6889 -77.9294 96° East 274 315 7,500  Climbing Washington Center
08:12PM 35.6781 -77.8372 98° East 274 315 7,400 -300 Descending Washington Center
08:13PM 35.6692 -77.7500 97° East 274 315 7,000 -1,140 Descending Washington Center
08:14PM 35.6644 -77.6628 94° East 260 299 5,200 -1,920 Descending Washington Center
08:15PM 35.6597 -77.5783 94° East 255 293 3,200 -2,040 Descending Washington Center
08:17PM 35.7263 -77.6210 321° Northwest  Level Estimated
08:24PM 36.0271 -77.8144 328° Northwest  Level Estimated
08:25PM 36.0706 -77.7881 26° Northeast  Level FlightAware Approximate
08:26PM 36.1134 -77.8162 332° Northwest  Level Estimated
08:27PM 36.1562 -77.8443 329° Northwest  Level Estimated
08:28PM 36.2046 -77.8468 358° North  Level FlightAware Approximate
08:29PM 36.2473 -77.8751 327° Northwest  Level Estimated
08:30PM 36.2933 -77.8938 342° North  Level FlightAware Approximate
08:31PM 36.3360 -77.9222 332° Northwest  Level Estimated
08:32PM 36.3787 -77.9507 332° Northwest  Level Estimated
08:33PM 36.4213 -77.9793 338° Northwest  Level Estimated
08:34PM 36.4639 -78.0079 321° Northwest  Level Estimated
08:35PM 36.5066 -78.0365 332° Northwest  Level Estimated
08:36PM 36.5498 -78.0638 333° Northwest  Level FlightAware Approximate
08:37PM 36.5930 -78.0911 333° Northwest  Level FlightAware Approximate
08:38PM 36.6356 -78.1198 321° Northwest  Level Estimated
08:39PM 36.6782 -78.1486 329° Northwest  Level Estimated
08:40PM 36.7168 -78.1851 323° Northwest  Level FlightAware Approximate
08:41PM 36.7594 -78.2139 332° Northwest  Level Estimated
08:42PM 36.8020 -78.2427 329° Northwest  Level Estimated
08:43PM 36.8446 -78.2715 329° Northwest  Level Estimated
08:44PM 36.8841 -78.3064 325° Northwest  Level FlightAware Approximate
08:45PM 36.9267 -78.3353 327° Northwest  Level Estimated
08:46PM 36.9668 -78.3694 326° Northwest  Level FlightAware Approximate
08:47PM 37.0068 -78.4036 326° Northwest  Level FlightAware Approximate
08:48PM 37.0468 -78.4378 326° Northwest  Level FlightAware Approximate
08:49PM 37.0895 -78.4666 338° Northwest  Level Estimated
08:50PM 37.1321 -78.4954 329° Northwest  Level Estimated
08:51PM 37.1735 -78.5271 329° Northwest  Level FlightAware Approximate
08:52PM 37.2148 -78.5587 329° Northwest  Level FlightAware Approximate
08:53PM 37.2562 -78.5904 329° Northwest  Level FlightAware Approximate
08:54PM 37.2975 -78.6222 329° Northwest  Level FlightAware Approximate
08:55PM 37.3388 -78.6540 329° Northwest  Level FlightAware Approximate
08:56PM 37.3802 -78.6858 329° Northwest  Level FlightAware Approximate
08:57PM 37.4215 -78.7176 329° Northwest  Level FlightAware Approximate
08:58PM 37.4628 -78.7495 329° Northwest  Level FlightAware Approximate
08:59PM 37.5041 -78.7814 328° Northwest  Level FlightAware Approximate
09:00PM 37.5454 -78.8133 328° Northwest  Level FlightAware Approximate
09:01PM 37.5867 -78.8453 328° Northwest  Level FlightAware Approximate
09:02PM 37.6279 -78.8773 328° Northwest  Level FlightAware Approximate
09:03PM 37.6706 -78.9062 327° Northwest  Level Estimated
09:04PM 37.7113 -78.9396 327° Northwest  Level FlightAware Approximate
09:05PM 37.7519 -78.9730 327° Northwest  Level FlightAware Approximate
09:06PM 37.7925 -79.0064 327° Northwest  Level FlightAware Approximate
09:07PM 37.8331 -79.0399 327° Northwest  Level FlightAware Approximate
09:08PM 37.8736 -79.0734 327° Northwest  Level FlightAware Approximate
09:09PM 37.9142 -79.1069 327° Northwest  Level FlightAware Approximate
09:10PM 37.9548 -79.1405 327° Northwest  Level FlightAware Approximate
09:11PM 37.9954 -79.1741 327° Northwest  Level FlightAware Approximate
09:12PM 38.0382 -79.2029 329° Northwest  Level Estimated
09:13PM 38.0796 -79.2348 329° Northwest  Level FlightAware Approximate
09:14PM 38.1210 -79.2667 329° Northwest  Level FlightAware Approximate
09:15PM 38.1624 -79.2987 329° Northwest  Level FlightAware Approximate
09:16PM 38.2038 -79.3307 329° Northwest  Level FlightAware Approximate
09:17PM 38.2452 -79.3627 329° Northwest  Level FlightAware Approximate
09:18PM 38.2866 -79.3948 329° Northwest  Level FlightAware Approximate
09:19PM 38.3280 -79.4269 329° Northwest  Level FlightAware Approximate
09:20PM 38.3693 -79.4591 329° Northwest  Level FlightAware Approximate
09:21PM 38.4107 -79.4913 329° Northwest  Level FlightAware Approximate
09:22PM 38.4520 -79.5235 329° Northwest  Level FlightAware Approximate
09:23PM 38.4934 -79.5557 329° Northwest  Level FlightAware Approximate
09:24PM 38.5363 -79.5845 328° Northwest  Level Estimated
09:25PM 38.5772 -79.6176 328° Northwest  Level FlightAware Approximate
09:26PM 38.6181 -79.6508 328° Northwest  Level FlightAware Approximate
09:27PM 38.6591 -79.6840 328° Northwest  Level FlightAware Approximate
09:28PM 38.7000 -79.7173 328° Northwest  Level FlightAware Approximate
09:29PM 38.7408 -79.7506 328° Northwest  Level FlightAware Approximate
09:30PM 38.7817 -79.7839 328° Northwest  Level FlightAware Approximate
09:31PM 38.8226 -79.8173 328° Northwest  Level FlightAware Approximate
09:32PM 38.8635 -79.8507 328° Northwest  Level FlightAware Approximate
09:33PM 38.9043 -79.8841 328° Northwest  Level FlightAware Approximate
09:34PM 38.9452 -79.9176 327° Northwest  Level FlightAware Approximate
09:35PM 38.9860 -79.9511 327° Northwest  Level FlightAware Approximate
09:36PM 39.0268 -79.9847 327° Northwest  Level FlightAware Approximate
09:37PM 39.0676 -80.0183 327° Northwest  Level FlightAware Approximate
09:38PM 39.1085 -80.0519 327° Northwest  Level FlightAware Approximate
09:39PM 39.1517 -80.0801 327° Northwest  Level Estimated
09:40PM 39.1920 -80.1148 326° Northwest  Level FlightAware Approximate
09:41PM 39.2323 -80.1495 326° Northwest  Level FlightAware Approximate
09:42PM 39.2725 -80.1843 326° Northwest  Level FlightAware Approximate
09:43PM 39.3128 -80.2191 326° Northwest  Level FlightAware Approximate
09:44PM 39.3531 -80.2539 326° Northwest  Level FlightAware Approximate
09:45PM 39.3933 -80.2888 326° Northwest  Level FlightAware Approximate
09:46PM 39.4335 -80.3237 326° Northwest  Level FlightAware Approximate
09:47PM 39.4737 -80.3587 326° Northwest  Level FlightAware Approximate
09:48PM 39.5140 -80.3937 326° Northwest  Level FlightAware Approximate
09:49PM 39.5541 -80.4287 326° Northwest  Level FlightAware Approximate
09:50PM 39.5979 -80.4558 327° Northwest  Level Estimated
09:51PM 39.6384 -80.4902 327° Northwest  Level FlightAware Approximate
09:52PM 39.6790 -80.5246 327° Northwest  Level FlightAware Approximate
09:53PM 39.7196 -80.5591 327° Northwest  Level FlightAware Approximate
09:54PM 39.7601 -80.5936 327° Northwest  Level FlightAware Approximate
09:55PM 39.8006 -80.6281 327° Northwest  Level FlightAware Approximate
09:56PM 39.8411 -80.6627 327° Northwest  Level FlightAware Approximate
09:57PM 39.8816 -80.6973 327° Northwest  Level FlightAware Approximate
09:58PM 39.9221 -80.7320 327° Northwest  Level FlightAware Approximate
09:59PM 39.9626 -80.7667 327° Northwest  Level FlightAware Approximate
10:00PM 40.0031 -80.8014 327° Northwest  Level FlightAware Approximate
10:01PM 40.0435 -80.8362 327° Northwest  Level FlightAware Approximate
10:02PM 40.0840 -80.8710 327° Northwest  Level FlightAware Approximate
10:03PM 40.1244 -80.9059 327° Northwest  Level FlightAware Approximate
10:04PM 40.1649 -80.9408 327° Northwest  Level FlightAware Approximate
10:05PM 40.2097 -80.9649 330° Northwest  Level Estimated
10:06PM 40.2490 -81.0019 324° Northwest  Level FlightAware Approximate
10:07PM 40.2940 -81.0256 327° Northwest  Level Estimated
10:08PM 40.3334 -81.0624 325° Northwest  Level FlightAware Approximate
10:09PM 40.3729 -81.0993 325° Northwest  Level FlightAware Approximate
10:10PM 40.4123 -81.1363 325° Northwest  Level FlightAware Approximate
10:11PM 40.4517 -81.1733 324° Northwest  Level FlightAware Approximate
10:12PM 40.4911 -81.2103 324° Northwest  Level FlightAware Approximate
10:13PM 40.5369 -81.2311 333° Northwest  Level Estimated
10:14PM 40.5827 -81.2519 326° Northwest  Level Estimated
10:15PM 40.6200 -81.2926 320° Northwest  Level FlightAware Approximate
10:16PM 40.6573 -81.3334 320° Northwest  Level FlightAware Approximate
10:17PM 40.6946 -81.3742 320° Northwest  Level FlightAware Approximate
10:18PM 40.7412 -81.3915 323° Northwest  Level Estimated
10:19PM 40.7879 -81.4088 317° Northwest  Level Estimated
10:20PM 40.8158 -81.4611 305° West  Level FlightAware Approximate
10:21PM 40.8438 -81.5133 305° West  Level FlightAware Approximate
10:22PM 40.8717 -81.5657 305° West  Level FlightAware Approximate
10:23PM 40.9197 -81.5743 323° Northwest  Level Estimated
10:24PM 40.9467 -81.6276 304° West  Level FlightAware Approximate
10:25PM 40.9950 -81.6323 317° Northwest  Level Estimated
10:26PM 41.0172 -81.6893 297° West  Level FlightAware Approximate
10:27PM 41.0657 -81.6888 323° Northwest  Level Estimated
10:28PM 41.1141 -81.6882 314° West  Level Estimated
10:29PM 41.1293 -81.7492 288° West  Level FlightAware Approximate
10:30PM 41.1774 -81.7411 319° Northwest  Level Estimated
10:31PM 41.1975 -81.7997 295° West  Level FlightAware Approximate
10:32PM 41.2176 -81.8583 295° West  Level FlightAware Approximate
10:33PM 41.2620 -81.8325 323° Northwest  Level Estimated
10:34PM 41.2788 -81.8929 290° West  Level FlightAware Approximate
10:35PM 41.3193 -81.8575 69° East  Level Estimated
10:36PM 41.3405 -81.9155 296° West  Level FlightAware Approximate
10:37PM 41.3751 -81.8703 62° Northeast  Level Estimated
10:38PM 41.4096 -81.8251 62° Northeast  Level Estimated
10:39PM 41.4536 -81.8522 335° Northwest  Level FlightAware Approximate
10:40PM 41.4621 -81.8137 66° East  Level FlightAware Approximate
10:41PM 41.4818 -81.7546 66° East  Level FlightAware Approximate
10:42PM 41.5044 -81.6974 62° Northeast  Level FlightAware Approximate
10:43PM 41.5175 -81.6833 62° Northeast  Level Estimated
10:44PM 41.5175 -81.6833 62° Northeast  Level Estimated
10:45PM 41.5175 -81.6833 62° Northeast  Level Estimated
10:46PM 41.5175 -81.6833 62° Northeast  Level Estimated
10:47PM 41.5175 -81.6833 62° Northeast  Level Estimated
10:48PM 41.5175 -81.6833 62° Northeast  Level Estimated
10:49PM 41.5175 -81.6833 62° Northeast  Level Estimated
10:50PM 41.5175 -81.6833 62° Northeast  Level Estimated
10:51PM 41.5175 -81.6833 62° Northeast  Level Estimated